Country
Station

 

Weather  for  Glasgow, Glasgow International Airport  -  United States    United States

  
-17 °C (1 °F)
    
 
 

Current METAR for Glasgow, Glasgow International Airport is :

KGGW 212153Z AUTO 12007KT 10SM CLR M17/M21 A3017 RMK AO2 SLP287 T11671206

 

This is a report for Glasgow, Glasgow International Airport - United States.
 
The report was made 56 minutes ago, at 21:53 UTC .
The wind was blowing at a speed of 3.6 meters per second (8.1 miles per hour) from east/southeast (120°).
 
The temperature was -17 °C (1 °F), with a dew-point at -21 °C (-6 °F).
The temperature felt like -23 °C (-13 °F).
 
The atmospheric pressure was 1022 hPa (30.17 inHg).
The relative humidity was 70.9%.
 
The sky was clear.
 
The overall visibility was 16.1 kilometers (10.0 miles).
 

 
 
 
 

Country :   A   B   C   D   E   F   G   H   I   J   K   L   M   N   O   P   Q   R   S   T   U   V   W   Y   Z

 

Site Info  |  Disclaimer  |  Credits  |  Privacy
Contact us  |  Add to favorites
© 2013-2018 METARs - All rights reserved